createdAt,value
2019-04-16T00:00:46.672Z,68.63
2019-04-16T00:03:15.276Z,68.57
2019-04-16T00:05:45.485Z,69.01
2019-04-16T00:08:27.864Z,69.11
2019-04-16T00:10:53.896Z,69.13
2019-04-16T00:13:33.333Z,68.72
2019-04-16T00:16:02.266Z,68.64
2019-04-16T00:18:30.876Z,68.82
2019-04-16T00:21:01.143Z,68.63
2019-04-16T00:23:31.431Z,68.87
2019-04-16T00:26:00.015Z,69.03
2019-04-16T00:28:30.690Z,69.23
2019-04-16T00:30:58.845Z,69.01
2019-04-16T00:33:27.444Z,69.68
2019-04-16T00:35:56.292Z,69.77
2019-04-16T00:38:24.826Z,69.85
2019-04-16T00:40:53.531Z,69.62
2019-04-16T00:43:22.139Z,70.17
2019-04-16T00:45:50.818Z,70.21
2019-04-16T00:48:19.414Z,69.82
2019-04-16T00:50:48.028Z,70.09
2019-04-16T00:53:16.699Z,69.82
2019-04-16T00:55:45.850Z,69.94
2019-04-16T00:58:14.545Z,69.69
2019-04-16T01:00:43.396Z,69.73
2019-04-16T01:03:12.175Z,69.99
2019-04-16T01:05:41.001Z,69.86
2019-04-16T01:08:09.540Z,70.03
2019-04-16T01:10:38.151Z,70.06
2019-04-16T01:13:06.787Z,70.08
2019-04-16T01:15:35.411Z,70.19
2019-04-16T01:18:04.827Z,70.10
2019-04-16T01:20:34.527Z,70.20
2019-04-16T01:23:03.100Z,70.17
2019-04-16T01:25:31.735Z,70.31
2019-04-16T01:28:01.883Z,70.50
2019-04-16T01:30:36.616Z,70.70
2019-04-16T01:33:15.889Z,70.70
2019-04-16T01:36:01.015Z,70.62
2019-04-16T01:38:31.194Z,70.64
2019-04-16T01:41:04.558Z,70.38
2019-04-16T01:43:33.369Z,70.20
2019-04-16T01:46:02.458Z,70.24
2019-04-16T01:48:31.661Z,70.21
2019-04-16T01:51:00.165Z,70.48
2019-04-16T01:53:28.774Z,70.94
2019-04-16T01:55:57.758Z,71.20
2019-04-16T01:58:26.619Z,71.38
2019-04-16T02:00:55.236Z,71.72
2019-04-16T02:03:23.919Z,71.86
2019-04-16T02:05:54.861Z,71.80
2019-04-16T02:08:23.032Z,72.05
2019-04-16T02:10:51.942Z,72.36
2019-04-16T02:13:20.587Z,72.39
2019-04-16T02:15:50.572Z,72.60
2019-04-16T02:18:19.515Z,72.46
2019-04-16T02:20:48.191Z,73.19
2019-04-16T02:23:17.468Z,72.36
2019-04-16T02:25:48.497Z,72.46
2019-04-16T02:28:16.837Z,72.23
2019-04-16T02:30:45.468Z,72.42
2019-04-16T02:33:14.199Z,72.26
2019-04-16T02:35:44.395Z,72.20
2019-04-16T02:38:14.207Z,72.19
2019-04-16T02:40:43.220Z,71.96
2019-04-16T02:43:11.925Z,72.08
2019-04-16T02:45:40.745Z,71.92
2019-04-16T02:48:14.986Z,71.95
2019-04-16T02:50:44.350Z,72.12
2019-04-16T02:53:29.223Z,71.87
2019-04-16T02:56:18.734Z,71.87
2019-04-16T02:58:57.025Z,71.92
2019-04-16T03:01:30.462Z,72.39
2019-04-16T03:04:03.671Z,72.28
2019-04-16T03:06:32.609Z,72.53
2019-04-16T03:09:01.796Z,72.82
2019-04-16T03:11:31.272Z,73.32
2019-04-16T03:13:59.881Z,73.54
2019-04-16T03:16:38.019Z,73.51
2019-04-16T03:19:08.225Z,73.38
2019-04-16T03:21:36.874Z,73.30
2019-04-16T03:24:08.230Z,73.55
2019-04-16T03:26:35.967Z,73.68
2019-04-16T03:29:04.891Z,73.69
2019-04-16T03:31:33.613Z,73.62
2019-04-16T03:34:02.232Z,73.91
2019-04-16T03:36:30.902Z,73.84
2019-04-16T03:38:59.373Z,73.61
2019-04-16T03:41:27.923Z,73.45
2019-04-16T03:43:56.509Z,73.47
2019-04-16T03:46:25.082Z,73.43
2019-04-16T03:48:56.072Z,73.31
2019-04-16T03:51:23.974Z,73.53
2019-04-16T03:53:52.646Z,73.56
2019-04-16T03:56:21.190Z,73.57
2019-04-16T03:58:49.872Z,73.82
2019-04-16T04:01:18.497Z,74.00
2019-04-16T04:03:47.168Z,74.28
2019-04-16T04:06:16.777Z,74.09
2019-04-16T04:08:48.144Z,74.10
2019-04-16T04:11:15.619Z,74.26
2019-04-16T04:13:44.344Z,74.07
2019-04-16T04:16:15.715Z,74.10
2019-04-16T04:18:44.361Z,74.11
2019-04-16T04:21:12.922Z,73.83
2019-04-16T04:23:41.466Z,73.80
2019-04-16T04:26:10.318Z,73.95
2019-04-16T04:28:39.185Z,74.10
2019-04-16T04:31:08.148Z,74.00
2019-04-16T04:33:41.668Z,74.14
2019-04-16T04:36:09.323Z,74.03
2019-04-16T04:38:38.558Z,73.91
2019-04-16T04:41:07.861Z,73.90
2019-04-16T04:43:38.206Z,74.10
2019-04-16T04:46:12.895Z,73.99
2019-04-16T04:48:37.379Z,74.02
2019-04-16T04:51:07.973Z,74.02
2019-04-16T04:53:36.407Z,73.87
2019-04-16T04:56:05.382Z,74.06
2019-04-16T04:58:34.837Z,74.07
2019-04-16T05:01:03.810Z,74.45
2019-04-16T05:03:49.975Z,74.38
2019-04-16T05:06:26.784Z,74.27
2019-04-16T05:08:53.337Z,73.80
2019-04-16T05:11:21.881Z,73.63
2019-04-16T05:13:53.485Z,73.29
2019-04-16T05:16:20.911Z,73.04
2019-04-16T05:18:49.453Z,72.87
2019-04-16T05:21:19.510Z,72.48
2019-04-16T05:23:48.279Z,71.99
2019-04-16T05:26:16.924Z,71.63
2019-04-16T05:28:45.828Z,70.81
2019-04-16T05:31:14.562Z,69.89
2019-04-16T05:33:43.151Z,69.92
2019-04-16T05:36:14.257Z,69.39
2019-04-16T05:38:42.107Z,68.46
2019-04-16T05:41:13.617Z,67.99
2019-04-16T05:43:41.126Z,67.56
2019-04-16T05:46:09.960Z,67.34
2019-04-16T05:48:38.723Z,66.84
2019-04-16T05:51:07.370Z,66.36
2019-04-16T05:53:40.116Z,65.67
2019-04-16T05:56:25.604Z,65.57
2019-04-16T05:58:54.241Z,64.82
2019-04-16T06:01:30.474Z,63.73
2019-04-16T06:03:59.086Z,63.24
2019-04-16T06:06:28.769Z,62.96
2019-04-16T06:08:57.877Z,60.73
2019-04-16T06:11:29.427Z,60.32
2019-04-16T06:13:58.356Z,59.79
2019-04-16T06:16:31.028Z,59.58
2019-04-16T06:19:11.433Z,58.56
2019-04-16T06:21:57.458Z,57.03
2019-04-16T06:24:32.403Z,57.00
2019-04-16T06:27:11.548Z,55.90
2019-04-16T06:30:01.441Z,56.32
2019-04-16T06:32:38.215Z,55.82
2019-04-16T06:35:08.584Z,55.47
2019-04-16T06:37:41.495Z,54.34
2019-04-16T06:40:31.752Z,53.64
2019-04-16T06:43:16.427Z,53.30
2019-04-16T06:45:46.855Z,52.23
2019-04-16T06:48:18.056Z,52.06
2019-04-16T06:51:06.080Z,51.28
2019-04-16T06:53:42.255Z,51.06
2019-04-16T06:56:15.469Z,50.31
2019-04-16T06:58:51.221Z,49.39
2019-04-16T07:01:22.234Z,46.18
2019-04-16T07:03:59.595Z,42.59
2019-04-16T07:06:27.493Z,37.88
2019-04-16T07:09:03.665Z,34.88
2019-04-16T07:11:33.836Z,37.70
2019-04-16T07:14:02.568Z,36.65
2019-04-16T07:16:31.130Z,36.75
2019-04-16T07:18:59.598Z,36.57
2019-04-16T07:21:28.289Z,36.79
2019-04-16T07:23:58.375Z,35.24
2019-04-16T07:26:27.008Z,32.96
2019-04-16T07:29:02.888Z,33.18
2019-04-16T07:31:35.872Z,33.96
2019-04-16T07:34:22.706Z,33.67
2019-04-16T07:37:00.703Z,33.32
2019-04-16T07:39:30.661Z,33.88
2019-04-16T07:42:21.382Z,31.68
2019-04-16T07:45:00.580Z,32.71
2019-04-16T07:47:33.712Z,31.60
2019-04-16T07:50:12.415Z,30.24
2019-04-16T07:52:42.805Z,31.43
2019-04-16T07:55:31.369Z,32.36
2019-04-16T07:57:59.981Z,29.56
2019-04-16T08:00:28.654Z,30.36
2019-04-16T08:02:57.206Z,30.58
2019-04-16T08:05:27.912Z,31.77
2019-04-16T08:07:56.318Z,31.66
2019-04-16T08:10:25.043Z,31.64
2019-04-16T08:12:56.911Z,30.54
2019-04-16T08:15:25.738Z,31.47
2019-04-16T08:17:54.313Z,31.76
2019-04-16T08:20:24.594Z,30.62
2019-04-16T08:22:54.758Z,29.07
2019-04-16T08:25:34.086Z,29.97
2019-04-16T08:28:01.222Z,29.90
2019-04-16T08:30:34.619Z,27.86
2019-04-16T08:33:00.574Z,27.52
2019-04-16T08:35:29.432Z,25.87
2019-04-16T08:37:58.925Z,26.78
2019-04-16T08:40:27.675Z,27.45
2019-04-16T08:42:57.287Z,27.35
2019-04-16T08:45:26.844Z,26.09
2019-04-16T08:47:55.455Z,25.11
2019-04-16T08:50:26.301Z,26.00
2019-04-16T08:52:54.326Z,25.45
2019-04-16T08:55:23.681Z,26.99
2019-04-16T08:57:52.823Z,26.57
2019-04-16T09:00:21.501Z,26.47
2019-04-16T09:02:50.121Z,26.13
2019-04-16T09:05:18.762Z,26.12
2019-04-16T09:07:50.679Z,26.57
2019-04-16T09:10:23.490Z,26.95
2019-04-16T09:13:02.251Z,25.56
2019-04-16T09:15:28.412Z,25.99
2019-04-16T09:18:01.578Z,25.74
2019-04-16T09:20:34.711Z,25.43
2019-04-16T09:23:02.026Z,25.27
2019-04-16T09:25:47.488Z,24.84
2019-04-16T09:28:25.657Z,24.81
2019-04-16T09:33:53.387Z,26.24
2019-04-16T09:36:26.345Z,25.30
2019-04-16T09:38:56.673Z,26.39
2019-04-16T09:41:33.184Z,24.36
2019-04-16T09:44:02.527Z,25.77
2019-04-16T09:46:50.647Z,25.30
2019-04-16T09:49:04.889Z,24.61
2019-04-16T09:51:32.593Z,25.60
2019-04-16T09:54:01.330Z,24.27
2019-04-16T09:56:30.669Z,23.88
2019-04-16T09:59:05.804Z,23.62
2019-04-16T10:01:42.140Z,24.31
2019-04-16T10:04:15.678Z,23.18
2019-04-16T10:06:44.388Z,22.97
2019-04-16T10:09:19.840Z,25.01
2019-04-16T10:11:45.342Z,24.69
2019-04-16T10:14:15.007Z,24.44
2019-04-16T10:16:44.064Z,25.16
2019-04-16T10:19:12.768Z,24.40
2019-04-16T10:21:42.478Z,23.61
2019-04-16T10:24:15.838Z,22.66
2019-04-16T10:26:46.329Z,24.66
2019-04-16T10:29:17.270Z,25.45
2019-04-16T10:31:46.076Z,25.00
2019-04-16T10:34:14.894Z,24.66
2019-04-16T10:36:43.630Z,24.34
2019-04-16T10:39:29.186Z,23.96
2019-04-16T10:41:59.490Z,24.58
2019-04-16T10:44:31.200Z,23.66
2019-04-16T10:47:19.789Z,24.26
2019-04-16T10:49:49.647Z,23.61
2019-04-16T10:52:22.903Z,23.93
2019-04-16T10:54:56.051Z,24.15
2019-04-16T10:57:26.719Z,24.74
2019-04-16T10:59:59.711Z,23.49
2019-04-16T11:02:39.134Z,24.02
2019-04-16T11:05:19.237Z,25.79
2019-04-16T11:07:47.641Z,25.70
2019-04-16T11:10:16.695Z,25.38
2019-04-16T11:12:45.423Z,25.79
2019-04-16T11:15:16.426Z,25.94
2019-04-16T11:17:45.154Z,26.30
2019-04-16T11:20:13.969Z,26.11
2019-04-16T11:22:42.961Z,26.38
2019-04-16T11:25:11.895Z,27.24
2019-04-16T11:27:40.597Z,26.83
2019-04-16T11:30:12.299Z,25.56
2019-04-16T11:32:40.936Z,25.43
2019-04-16T11:35:12.947Z,25.03
2019-04-16T11:37:43.690Z,25.19
2019-04-16T11:40:11.375Z,26.68
2019-04-16T11:42:40.246Z,26.38
2019-04-16T11:45:09.374Z,25.92
2019-04-16T11:47:38.093Z,25.39
2019-04-16T11:50:07.546Z,26.23
2019-04-16T11:52:39.902Z,25.86
2019-04-16T11:55:08.089Z,26.99
2019-04-16T11:57:36.715Z,26.62
2019-04-16T12:00:14.227Z,25.85
2019-04-16T12:03:00.555Z,25.76
2019-04-16T12:05:36.607Z,26.13
2019-04-16T12:08:18.945Z,25.70
2019-04-16T12:11:05.587Z,26.24
2019-04-16T12:13:44.651Z,26.69
2019-04-16T12:16:18.038Z,26.79
2019-04-16T12:19:03.492Z,27.40
2019-04-16T12:21:49.981Z,27.91
2019-04-16T12:24:36.098Z,29.54
2019-04-16T12:27:22.911Z,29.31
2019-04-16T12:30:05.962Z,29.71
2019-04-16T12:32:36.233Z,30.54
2019-04-16T12:35:23.942Z,30.09
2019-04-16T12:38:12.002Z,30.61
2019-04-16T12:40:56.142Z,30.57
2019-04-16T12:43:26.466Z,28.81
2019-04-16T12:46:02.514Z,29.09
2019-04-16T12:48:48.968Z,28.14
2019-04-16T12:51:39.808Z,28.78
2019-04-16T12:54:10.610Z,29.56
2019-04-16T12:56:58.967Z,29.93
2019-04-16T12:59:44.525Z,29.60
2019-04-16T13:02:29.778Z,28.90
2019-04-16T13:05:08.991Z,29.18
2019-04-16T13:07:41.577Z,30.24
2019-04-16T13:10:18.318Z,29.70
2019-04-16T13:12:57.750Z,29.40
2019-04-16T13:15:46.057Z,29.08
2019-04-16T13:18:19.125Z,29.83
2019-04-16T13:20:57.342Z,29.00
2019-04-16T13:23:39.589Z,28.82
2019-04-16T13:26:13.458Z,28.38
2019-04-16T13:28:42.708Z,28.97
2019-04-16T13:31:11.334Z,29.55
2019-04-16T13:33:40.029Z,29.77
2019-04-16T13:36:09.191Z,29.25
2019-04-16T13:38:40.386Z,30.23
2019-04-16T13:41:09.827Z,30.61
2019-04-16T13:43:56.249Z,30.30
2019-04-16T13:46:29.277Z,30.59
2019-04-16T13:48:59.617Z,30.81
2019-04-16T13:51:30.567Z,30.50
2019-04-16T13:54:04.104Z,30.30
2019-04-16T13:56:37.291Z,30.02
2019-04-16T13:59:16.566Z,28.73
2019-04-16T14:02:02.021Z,29.22
2019-04-16T14:04:31.779Z,29.19
2019-04-16T14:07:00.898Z,28.99
2019-04-16T14:09:29.541Z,29.24
2019-04-16T14:11:58.113Z,28.98
2019-04-16T14:14:29.683Z,29.50
2019-04-16T14:17:08.207Z,28.74
2019-04-16T14:19:28.934Z,28.42
2019-04-16T14:21:57.600Z,28.99
2019-04-16T14:24:27.724Z,29.21
2019-04-16T14:26:56.374Z,29.26
2019-04-16T14:29:26.037Z,29.68
2019-04-16T14:31:55.007Z,29.70
2019-04-16T14:34:31.159Z,30.19
2019-04-16T14:36:59.849Z,30.22
2019-04-16T14:39:36.192Z,30.97
2019-04-16T14:42:04.871Z,31.11
2019-04-16T14:44:41.228Z,29.87
2019-04-16T14:47:10.183Z,29.59
2019-04-16T14:49:38.819Z,29.47
2019-04-16T14:52:07.785Z,29.52
2019-04-16T14:54:44.200Z,30.46
2019-04-16T14:57:13.896Z,30.81
2019-04-16T14:59:59.188Z,30.33
2019-04-16T15:02:29.943Z,30.83
2019-04-16T15:05:02.964Z,30.92
2019-04-16T15:07:49.621Z,30.62
2019-04-16T15:10:36.490Z,30.02
2019-04-16T15:13:09.713Z,30.52
2019-04-16T15:15:39.953Z,31.13
2019-04-16T15:18:12.962Z,30.70
2019-04-16T15:20:43.400Z,31.28
2019-04-16T15:23:13.601Z,31.04
2019-04-16T15:25:46.623Z,31.51
2019-04-16T15:28:19.769Z,31.30
2019-04-16T15:30:50.078Z,30.34
2019-04-16T15:33:20.213Z,30.58
2019-04-16T15:35:59.815Z,29.74
2019-04-16T15:38:30.363Z,30.21
2019-04-16T15:41:18.817Z,30.12
2019-04-16T15:44:05.310Z,30.04
2019-04-16T15:46:51.770Z,30.70
2019-04-16T15:49:38.368Z,30.50
2019-04-16T15:52:25.048Z,30.33
2019-04-16T15:55:11.733Z,30.67
2019-04-16T15:57:51.726Z,30.07
2019-04-16T16:00:28.248Z,30.21
2019-04-16T16:03:16.572Z,30.46
2019-04-16T16:05:46.907Z,30.76
2019-04-16T16:08:19.837Z,30.28
2019-04-16T16:10:53.112Z,30.72
2019-04-16T16:13:26.426Z,30.97
2019-04-16T16:15:53.445Z,31.53
2019-04-16T16:18:21.957Z,31.43
2019-04-16T16:20:50.637Z,32.28
2019-04-16T16:23:19.257Z,32.06
2019-04-16T16:25:48.004Z,32.52
2019-04-16T16:28:16.679Z,32.62
2019-04-16T16:30:45.253Z,32.55
2019-04-16T16:33:13.828Z,33.01
2019-04-16T16:35:56.864Z,33.41
2019-04-16T16:38:14.048Z,33.03
2019-04-16T16:40:43.329Z,32.87
2019-04-16T16:43:14.100Z,33.85
2019-04-16T16:45:59.407Z,33.34
2019-04-16T16:48:29.238Z,33.49
2019-04-16T16:50:57.924Z,33.34
2019-04-16T16:53:31.096Z,33.72
2019-04-16T16:56:01.419Z,34.06
2019-04-16T16:58:34.333Z,33.86
2019-04-16T17:01:21.186Z,33.96
2019-04-16T17:03:52.730Z,33.72
2019-04-16T17:06:25.925Z,33.44
2019-04-16T17:08:54.903Z,34.07
2019-04-16T17:11:23.529Z,33.58
2019-04-16T17:13:52.291Z,33.65
2019-04-16T17:16:21.013Z,33.50
2019-04-16T17:18:49.653Z,33.86
2019-04-16T17:21:18.336Z,33.79
2019-04-16T17:23:47.090Z,34.18
2019-04-16T17:26:16.633Z,33.89
2019-04-16T17:28:45.676Z,34.14
2019-04-16T17:31:16.126Z,34.74
2019-04-16T17:33:44.838Z,34.65
2019-04-16T17:36:13.600Z,34.61
2019-04-16T17:38:47.677Z,34.83
2019-04-16T17:41:17.953Z,35.23
2019-04-16T17:43:59.895Z,35.65
2019-04-16T17:46:36.617Z,35.51
2019-04-16T17:49:23.205Z,35.72
2019-04-16T17:51:53.501Z,36.98
2019-04-16T17:54:27.023Z,37.38
2019-04-16T17:57:13.093Z,37.91
2019-04-16T17:59:46.142Z,38.29
2019-04-16T18:02:34.450Z,39.15
2019-04-16T18:05:23.384Z,39.55
2019-04-16T18:07:55.371Z,41.33
2019-04-16T18:10:26.878Z,42.24
2019-04-16T18:12:57.540Z,44.41
2019-04-16T18:15:34.289Z,45.15
2019-04-16T18:18:07.754Z,46.21
2019-04-16T18:20:56.486Z,47.11
2019-04-16T18:23:14.902Z,47.60
2019-04-16T18:25:55.444Z,48.18
2019-04-16T18:28:23.455Z,49.23
2019-04-16T18:30:53.679Z,50.88
2019-04-16T18:33:32.928Z,51.75
2019-04-16T18:36:06.333Z,53.11
2019-04-16T18:38:39.557Z,55.17
2019-04-16T18:41:22.179Z,56.15
2019-04-16T18:44:08.748Z,57.51
2019-04-16T18:46:38.965Z,59.12
2019-04-16T18:49:17.426Z,59.80
2019-04-16T18:51:45.444Z,60.00
2019-04-16T18:54:14.981Z,61.47
2019-04-16T18:56:44.469Z,61.51
2019-04-16T18:59:13.113Z,61.12
2019-04-16T19:01:46.231Z,61.46
2019-04-16T19:04:14.782Z,61.40
2019-04-16T19:06:43.461Z,60.95
2019-04-16T19:09:12.102Z,61.67
2019-04-16T19:11:40.666Z,63.09
2019-04-16T19:14:13.147Z,63.50
2019-04-16T19:16:40.678Z,63.18
2019-04-16T19:19:09.417Z,64.60
2019-04-16T19:21:42.079Z,65.40
2019-04-16T19:24:08.372Z,66.73
2019-04-16T19:26:37.051Z,65.71
2019-04-16T19:29:06.300Z,68.23
2019-04-16T19:31:35.793Z,68.92
2019-04-16T19:34:08.502Z,69.47
2019-04-16T19:36:35.122Z,70.35
2019-04-16T19:39:07.075Z,69.79
2019-04-16T19:41:36.450Z,70.36
2019-04-16T19:44:07.255Z,71.27
2019-04-16T19:46:35.748Z,72.44
2019-04-16T19:49:04.404Z,71.34
2019-04-16T19:51:32.962Z,72.36
2019-04-16T19:54:01.547Z,73.03
2019-04-16T19:56:33.275Z,72.88
2019-04-16T19:59:00.751Z,73.55
2019-04-16T20:01:29.583Z,72.64
2019-04-16T20:03:58.270Z,72.87
2019-04-16T20:06:26.946Z,73.84
2019-04-16T20:08:55.905Z,74.86
2019-04-16T20:11:24.682Z,75.19
2019-04-16T20:13:53.658Z,75.11
2019-04-16T20:16:22.642Z,74.75
2019-04-16T20:18:51.687Z,74.15
2019-04-16T20:21:20.294Z,74.44
2019-04-16T20:23:48.992Z,76.42
2019-04-16T20:26:17.634Z,75.55
2019-04-16T20:28:48.469Z,75.99
2019-04-16T20:31:16.696Z,75.90
2019-04-16T20:33:45.448Z,76.19
2019-04-16T20:36:14.064Z,76.38
2019-04-16T20:38:42.809Z,77.25
2019-04-16T20:41:11.467Z,78.13
2019-04-16T20:43:40.024Z,78.33
2019-04-16T20:46:08.690Z,78.21
2019-04-16T20:48:37.417Z,79.04
2019-04-16T20:51:06.175Z,78.58
2019-04-16T20:53:34.966Z,78.84
2019-04-16T20:56:05.429Z,78.72
2019-04-16T20:58:33.913Z,79.16
2019-04-16T21:01:03.778Z,78.69
2019-04-16T21:03:33.246Z,79.13
2019-04-16T21:06:07.150Z,79.08
2019-04-16T21:08:32.173Z,79.31
2019-04-16T21:11:00.782Z,78.82
2019-04-16T21:13:29.450Z,78.59
2019-04-16T21:16:01.784Z,79.17
2019-04-16T21:18:28.506Z,78.47
2019-04-16T21:20:57.055Z,79.25
2019-04-16T21:23:25.682Z,78.47
2019-04-16T21:25:54.256Z,78.48
2019-04-16T21:28:30.680Z,79.16
2019-04-16T21:31:04.161Z,80.16
2019-04-16T21:33:34.696Z,79.86
2019-04-16T21:36:07.670Z,79.54
2019-04-16T21:38:37.956Z,79.86
2019-04-16T21:41:06.637Z,80.08
2019-04-16T21:43:35.688Z,80.25
2019-04-16T21:46:05.991Z,80.57
2019-04-16T21:48:34.622Z,80.96
2019-04-16T21:51:03.448Z,81.07
2019-04-16T21:53:32.492Z,80.84
2019-04-16T21:56:06.808Z,80.68
2019-04-16T21:58:31.461Z,81.09
2019-04-16T22:01:10.520Z,81.42
2019-04-16T22:03:42.326Z,81.50
2019-04-16T22:06:09.574Z,81.53
2019-04-16T22:08:38.265Z,81.43
2019-04-16T22:11:08.814Z,81.26
2019-04-16T22:13:37.700Z,81.40
2019-04-16T22:16:06.389Z,81.30
2019-04-16T22:18:37.666Z,80.99
2019-04-16T22:21:09.816Z,80.89
2019-04-16T22:23:36.955Z,80.35
2019-04-16T22:26:09.584Z,80.43
2019-04-16T22:28:35.858Z,80.32
2019-04-16T22:31:04.504Z,80.10
2019-04-16T22:33:33.199Z,80.28
2019-04-16T22:36:01.732Z,81.03
2019-04-16T22:38:32.225Z,80.64
2019-04-16T22:41:02.472Z,80.94
2019-04-16T22:43:44.761Z,80.41
2019-04-16T22:46:15.109Z,80.19
2019-04-16T22:48:57.134Z,80.68
2019-04-16T22:51:26.387Z,80.09
2019-04-16T22:53:55.413Z,79.82
2019-04-16T22:56:28.509Z,79.40
2019-04-16T22:58:56.254Z,79.72
2019-04-16T23:01:27.233Z,79.43
2019-04-16T23:03:55.852Z,79.89
2019-04-16T23:06:24.433Z,80.08
2019-04-16T23:08:53.088Z,80.75
2019-04-16T23:11:23.722Z,80.13
2019-04-16T23:13:52.180Z,80.38
2019-04-16T23:16:20.651Z,80.58
2019-04-16T23:18:50.096Z,80.69
2019-04-16T23:21:18.875Z,80.37
2019-04-16T23:23:51.191Z,80.40
2019-04-16T23:26:17.842Z,80.13
2019-04-16T23:28:46.442Z,80.35
2019-04-16T23:31:15.020Z,80.63
2019-04-16T23:33:43.641Z,80.80
2019-04-16T23:36:15.680Z,81.23
2019-04-16T23:38:42.510Z,81.53
2019-04-16T23:41:15.320Z,81.70
2019-04-16T23:43:59.251Z,81.20
2019-04-16T23:46:41.386Z,80.99
2019-04-16T23:49:27.534Z,81.57
2019-04-16T23:52:06.529Z,81.36
2019-04-16T23:54:54.922Z,81.98
2019-04-16T23:57:41.096Z,81.92
